Time;durP1;ratioP1;P1;durP2;ratioP2;P2;SDS_P1;SDS_P2;PMS_P1;PMS_P2;Temp;Humidity;BMP_temperature;BMP_pressure;BME280_temperature;BME280_humidity;BME280_pressure;Samples;Min_cycle;Max_cycle;Signal;HPM_P1;HPM_P2
2022/05/01 00:01:14;;;;;;;21.42;12.45;;;7.00;99.90;;;;;;4951766;28;20046;-75
2022/05/01 00:03:41;;;;;;;26.90;13.02;;;6.90;99.90;;;;;;4951569;28;20078;-75
2022/05/01 00:06:08;;;;;;;26.13;13.05;;;6.90;99.90;;;;;;4953315;28;20019;-74
2022/05/01 00:08:36;;;;;;;23.33;12.80;;;9.10;99.90;;;;;;4953181;28;20102;-75
2022/05/01 00:11:02;;;;;;;24.17;11.52;;;6.70;99.90;;;;;;4952720;28;20031;-74
2022/05/01 00:13:29;;;;;;;25.17;12.90;;;6.60;99.90;;;;;;4953136;28;20024;-75
2022/05/01 00:15:55;;;;;;;28.45;13.15;;;6.60;99.90;;;;;;4951936;28;20559;-75
2022/05/01 00:18:21;;;;;;;19.70;10.70;;;6.50;99.90;;;;;;4952962;28;20081;-75
2022/05/01 00:20:47;;;;;;;22.92;12.57;;;6.50;99.90;;;;;;4953540;28;20055;-75
2022/05/01 00:23:14;;;;;;;28.23;12.77;;;6.40;99.90;;;;;;4953838;28;20027;-75
2022/05/01 00:25:41;;;;;;;23.80;13.15;;;6.30;99.90;;;;;;4953254;28;20082;-75
2022/05/01 00:28:17;;;;;;;26.90;13.23;;;6.30;99.90;;;;;;4953540;28;20058;-75
2022/05/01 00:30:43;;;;;;;23.80;12.85;;;6.30;99.90;;;;;;4954430;28;20019;-74
2022/05/01 00:38:38;;;;;;;25.58;12.48;;;6.30;99.90;;;;;;4956351;29;20082;-75
2022/05/01 00:41:07;;;;;;;27.70;13.18;;;6.30;99.90;;;;;;4953200;28;20023;-75
2022/05/01 00:43:33;;;;;;;27.60;13.90;;;6.40;99.90;;;;;;4951881;28;20034;-75
2022/05/01 00:45:59;;;;;;;27.23;12.82;;;6.50;99.90;;;;;;4952009;28;20031;-77
2022/05/01 00:48:25;;;;;;;24.98;12.00;;;6.60;99.90;;;;;;4951680;28;20388;-75
2022/05/01 00:50:52;;;;;;;26.67;13.18;;;6.60;99.90;;;;;;4950408;28;20431;-76
2022/05/01 00:53:18;;;;;;;21.65;11.60;;;6.70;99.90;;;;;;4967127;28;20028;-75
2022/05/01 00:55:44;;;;;;;25.88;11.98;;;6.80;99.90;;;;;;4952834;28;20037;-75
2022/05/01 00:58:10;;;;;;;20.88;12.05;;;6.90;99.90;;;;;;4952602;28;20035;-78
2022/05/01 01:00:36;;;;;;;23.10;11.98;;;7.00;99.90;;;;;;4951451;28;20023;-75
2022/05/01 01:03:02;;;;;;;25.02;11.90;;;7.00;99.90;;;;;;4951613;28;20035;-75
2022/05/01 01:05:28;;;;;;;21.67;12.38;;;7.10;99.90;;;;;;4952977;28;20070;-75
2022/05/01 01:07:53;;;;;;;21.52;11.95;;;7.10;99.90;;;;;;4950980;28;20443;-76
2022/05/01 01:10:20;;;;;;;24.73;12.15;;;7.10;99.90;;;;;;4952030;28;20508;-75
2022/05/01 01:12:55;;;;;;;20.90;10.90;;;7.10;99.90;;;;;;4952603;28;20043;-75
2022/05/01 01:15:31;;;;;;;23.55;11.85;;;7.10;99.90;;;;;;4952210;28;20058;-74
2022/05/01 01:17:58;;;;;;;19.38;11.18;;;7.20;99.90;;;;;;4953908;28;20043;-75
2022/05/01 01:20:26;;;;;;;26.50;12.43;;;7.30;99.90;;;;;;4955453;28;20019;-75
2022/05/01 01:22:54;;;;;;;24.92;12.75;;;7.30;99.90;;;;;;4955806;28;20023;-74
2022/05/01 01:25:29;;;;;;;21.20;11.32;;;7.40;99.90;;;;;;4956376;28;20019;-76
2022/05/01 01:27:59;;;;;;;25.20;13.20;;;7.50;99.90;;;;;;4954753;28;20027;-75
2022/05/01 01:33:09;;;;;;;23.25;12.55;;;7.50;99.90;;;;;;4956431;29;20042;-77
2022/05/01 01:35:37;;;;;;;24.08;11.35;;;7.50;99.90;;;;;;4953870;28;20026;-75
2022/05/01 01:38:04;;;;;;;25.58;13.25;;;7.50;99.90;;;;;;4954024;28;20203;-75
2022/05/01 01:40:34;;;;;;;23.13;12.50;;;7.50;99.90;;;;;;4954916;28;20028;-75
2022/05/01 01:43:01;;;;;;;26.85;13.40;;;7.50;99.90;;;;;;4953674;28;20118;-75
2022/05/01 01:45:30;;;;;;;28.27;12.65;;;7.50;99.90;;;;;;4954692;28;20047;-75
2022/05/01 01:47:57;;;;;;;28.27;13.30;;;7.50;99.90;;;;;;4953374;28;20031;-74
2022/05/01 01:50:24;;;;;;;23.77;12.52;;;7.50;99.90;;;;;;4955187;28;20039;-75
2022/05/01 01:52:50;;;;;;;24.55;13.38;;;7.40;99.90;;;;;;4956970;28;20076;-75
2022/05/01 01:55:19;;;;;;;24.63;13.18;;;7.30;99.90;;;;;;4955162;28;20047;-74
2022/05/01 01:57:45;;;;;;;28.92;13.82;;;7.20;99.90;;;;;;4954578;28;20046;-75
2022/05/01 02:00:14;;;;;;;28.70;15.30;;;7.10;99.90;;;;;;4957118;28;20035;-75
2022/05/01 02:02:40;;;;;;;26.60;12.80;;;7.10;99.90;;;;;;4957040;28;20027;-75
2022/05/01 02:05:06;;;;;;;24.35;13.35;;;7.00;99.90;;;;;;4954709;28;20023;-76
2022/05/01 02:07:33;;;;;;;24.80;12.80;;;6.90;99.90;;;;;;4955340;28;20023;-75
2022/05/01 02:10:00;;;;;;;26.83;12.68;;;6.80;99.90;;;;;;4955259;28;20043;-75
2022/05/01 02:12:26;;;;;;;28.52;14.38;;;6.60;99.90;;;;;;4953135;28;20394;-76
2022/05/01 02:14:52;;;;;;;30.35;16.60;;;6.60;99.90;;;;;;4952811;28;20498;-75
2022/05/01 02:17:18;;;;;;;30.42;15.23;;;6.60;99.90;;;;;;4954319;28;20039;-75
2022/05/01 02:19:45;;;;;;;28.15;15.07;;;6.70;99.90;;;;;;4954252;28;20027;-76
2022/05/01 02:22:11;;;;;;;28.33;14.23;;;6.70;99.90;;;;;;4954093;28;20042;-75
2022/05/01 02:24:37;;;;;;;28.40;14.45;;;6.70;99.90;;;;;;4954562;28;20027;-75
2022/05/01 02:27:03;;;;;;;26.25;13.98;;;6.60;99.90;;;;;;4954230;28;20023;-75
2022/05/01 02:29:29;;;;;;;26.60;12.43;;;6.60;99.90;;;;;;4953751;28;20024;-74
2022/05/01 02:31:56;;;;;;;25.83;12.32;;;6.60;99.90;;;;;;4955758;28;20542;-75
2022/05/01 02:34:23;;;;;;;34.22;14.10;;;6.50;99.90;;;;;;4954762;28;20050;-74
2022/05/01 02:36:51;;;;;;;25.33;13.60;;;6.50;99.90;;;;;;4954596;28;20154;-77
2022/05/01 02:39:20;;;;;;;29.80;13.95;;;6.40;99.90;;;;;;4954870;28;20400;-75
2022/05/01 02:41:46;;;;;;;26.73;12.80;;;6.40;99.90;;;;;;4953882;28;20106;-75
2022/05/01 02:44:12;;;;;;;28.48;14.20;;;6.20;99.90;;;;;;4953867;28;20030;-74
2022/05/01 02:46:38;;;;;;;31.08;13.93;;;6.20;99.90;;;;;;4954062;28;20024;-75
2022/05/01 02:49:07;;;;;;;36.50;15.80;;;6.10;99.90;;;;;;4953892;28;20043;-75
2022/05/01 02:51:32;;;;;;;34.42;14.85;;;6.10;99.90;;;;;;4953571;28;20027;-75
2022/05/01 02:53:59;;;;;;;36.78;14.75;;;6.10;99.90;;;;;;4953287;28;20389;-75
2022/05/01 02:56:26;;;;;;;37.40;15.15;;;6.00;99.90;;;;;;4953101;28;20376;-76
2022/05/01 02:58:51;;;;;;;30.83;14.45;;;6.00;99.90;;;;;;4952853;28;20052;-74
2022/05/01 03:01:17;;;;;;;35.70;16.30;;;6.00;99.90;;;;;;4953122;28;20034;-75
2022/05/01 03:03:44;;;;;;;30.50;15.23;;;5.90;99.90;;;;;;4953179;28;20035;-76
2022/05/01 03:06:10;;;;;;;31.83;15.70;;;5.80;99.90;;;;;;4953205;28;20051;-75
2022/05/01 03:08:36;;;;;;;32.00;14.63;;;5.70;99.90;;;;;;4953122;28;20055;-76
2022/05/01 03:11:01;;;;;;;35.63;15.38;;;5.60;99.90;;;;;;4953025;28;20027;-75
2022/05/01 03:13:29;;;;;;;30.83;14.15;;;5.80;99.90;;;;;;4952829;28;20031;-75
2022/05/01 03:15:54;;;;;;;29.17;14.70;;;5.30;99.90;;;;;;4952905;28;20016;-77
2022/05/01 03:23:49;;;;;;;30.52;13.57;;;5.00;99.90;;;;;;4953376;29;20082;-75
2022/05/01 03:26:18;;;;;;;34.38;15.13;;;4.90;99.90;;;;;;4952866;28;20023;-75
2022/05/01 03:28:48;;;;;;;31.42;14.23;;;4.80;99.90;;;;;;4952920;28;20098;-76
2022/05/01 03:31:15;;;;;;;27.85;12.30;;;4.80;99.90;;;;;;4951770;28;20398;-77
2022/05/01 03:33:42;;;;;;;36.88;14.70;;;4.80;99.90;;;;;;4951072;28;20027;-76
2022/05/01 03:36:09;;;;;;;29.48;14.40;;;4.70;99.90;;;;;;4952443;28;20335;-75
2022/05/01 03:38:39;;;;;;;32.15;14.00;;;4.70;99.90;;;;;;4952463;28;20039;-74
2022/05/01 03:41:09;;;;;;;36.70;16.33;;;4.60;99.90;;;;;;4952309;28;20030;-74
2022/05/01 03:43:36;;;;;;;38.55;15.00;;;4.50;99.90;;;;;;4952540;28;20027;-74
2022/05/01 03:46:06;;;;;;;31.27;14.30;;;4.50;99.90;;;;;;4952946;28;20042;-75
2022/05/01 03:48:32;;;;;;;;;;;4.50;99.90;;;;;;4951518;28;20028;-77
2022/05/01 03:50:58;;;;;;;33.00;14.05;;;4.40;99.90;;;;;;4952140;29;19918;-75
2022/05/01 03:53:25;;;;;;;37.90;14.98;;;4.40;99.90;;;;;;4953369;28;20023;-75
2022/05/01 03:55:54;;;;;;;34.97;15.23;;;4.40;99.90;;;;;;4953312;28;20082;-74
2022/05/01 03:58:20;;;;;;;34.42;14.80;;;4.40;99.90;;;;;;4951107;28;20039;-75
2022/05/01 04:00:47;;;;;;;33.83;14.75;;;4.40;99.90;;;;;;4952735;28;20023;-75
2022/05/01 04:03:15;;;;;;;41.50;15.27;;;4.40;99.90;;;;;;4953625;28;20106;-75
2022/05/01 04:05:41;;;;;;;39.92;16.45;;;4.50;99.90;;;;;;4952452;28;20036;-74
2022/05/01 04:08:10;;;;;;;34.03;14.82;;;4.50;99.90;;;;;;4952422;28;20031;-74
2022/05/01 04:10:43;;;;;;;36.22;16.67;;;4.60;99.90;;;;;;4952252;28;20027;-74
2022/05/01 04:13:10;;;;;;;39.17;17.25;;;4.70;99.90;;;;;;4952955;28;20031;-74
2022/05/01 04:15:36;;;;;;;40.95;16.15;;;4.70;99.90;;;;;;4952410;28;20031;-74
2022/05/01 04:18:06;;;;;;;37.72;16.65;;;4.70;99.90;;;;;;4953737;28;20031;-74
2022/05/01 04:20:32;;;;;;;36.58;16.08;;;4.80;99.90;;;;;;4952490;28;20149;-75
2022/05/01 04:22:59;;;;;;;39.53;16.27;;;4.80;99.90;;;;;;4952443;28;20034;-74
2022/05/01 04:25:26;;;;;;;42.78;17.23;;;4.90;99.90;;;;;;4952200;28;20027;-76
2022/05/01 04:27:57;;;;;;;36.80;15.15;;;5.00;99.90;;;;;;4952215;28;20035;-75
2022/05/01 04:30:24;;;;;;;35.15;15.60;;;5.10;99.90;;;;;;4951957;28;20062;-75
2022/05/01 04:32:55;;;;;;;35.63;15.27;;;5.10;99.90;;;;;;4951630;28;20027;-75
2022/05/01 04:35:28;;;;;;;37.90;15.65;;;5.30;99.90;;;;;;4952936;28;20057;-75
2022/05/01 04:38:02;;;;;;;40.08;16.35;;;5.20;99.90;;;;;;4953201;28;20559;-75
2022/05/01 04:40:34;;;;;;;43.65;17.05;;;5.40;99.90;;;;;;4953199;28;20567;-74
2022/05/01 04:43:05;;;;;;;42.65;15.68;;;5.50;99.90;;;;;;4953400;28;20023;-75
2022/05/01 04:45:32;;;;;;;38.17;17.55;;;5.70;99.90;;;;;;4952455;28;20027;-75
2022/05/01 04:47:58;;;;;;;35.63;15.43;;;5.80;99.90;;;;;;4955034;28;20035;-75
2022/05/01 04:50:25;;;;;;;38.13;16.50;;;5.90;99.90;;;;;;4954973;28;20046;-75
2022/05/01 04:52:51;;;;;;;32.40;14.07;;;6.00;99.90;;;;;;4955713;28;20042;-75
2022/05/01 04:55:17;;;;;;;37.30;15.73;;;6.10;99.90;;;;;;4958737;28;20451;-75
2022/05/01 04:57:43;;;;;;;34.20;14.40;;;6.20;99.90;;;;;;4959854;28;20090;-75
2022/05/01 05:00:09;;;;;;;36.83;16.45;;;6.20;99.90;;;;;;4957962;28;20031;-75
2022/05/01 05:02:39;;;;;;;38.30;15.68;;;6.30;99.90;;;;;;4958627;28;20091;-75
2022/05/01 05:05:06;;;;;;;34.33;15.50;;;6.20;99.90;;;;;;4960915;28;20515;-75
2022/05/01 05:07:33;;;;;;;33.83;15.55;;;6.20;99.90;;;;;;4959737;28;20027;-75
2022/05/01 05:09:59;;;;;;;36.17;15.95;;;6.30;99.90;;;;;;4958271;28;20027;-75
2022/05/01 05:12:25;;;;;;;38.80;16.55;;;6.40;99.90;;;;;;4955550;28;20035;-75
2022/05/01 05:14:58;;;;;;;35.00;15.98;;;6.40;99.90;;;;;;4956400;28;20102;-75
2022/05/01 05:17:24;;;;;;;37.42;16.60;;;6.50;99.90;;;;;;4955473;28;20031;-75
2022/05/01 05:19:49;;;;;;;42.00;17.02;;;6.60;99.90;;;;;;4953734;28;20032;-75
2022/05/01 05:22:15;;;;;;;31.67;15.43;;;6.70;99.90;;;;;;4953626;28;20768;-76
2022/05/01 05:24:41;;;;;;;29.88;14.45;;;6.90;99.90;;;;;;4955330;28;20042;-75
2022/05/01 05:27:08;;;;;;;32.33;15.52;;;7.10;99.90;;;;;;4953528;28;20047;-75
2022/05/01 05:29:34;;;;;;;34.17;15.35;;;7.10;99.90;;;;;;4955221;28;20031;-75
2022/05/01 05:32:00;;;;;;;29.95;15.45;;;7.20;99.90;;;;;;4954912;28;20058;-75
2022/05/01 05:34:26;;;;;;;28.13;13.70;;;7.40;99.90;;;;;;4955224;28;20054;-74
2022/05/01 05:36:53;;;;;;;31.48;14.60;;;7.60;99.90;;;;;;4954936;28;20042;-75
2022/05/01 05:39:19;;;;;;;30.83;13.70;;;7.90;99.90;;;;;;4955370;28;20114;-75
2022/05/01 05:41:45;;;;;;;31.00;14.23;;;8.10;99.90;;;;;;4953742;28;20037;-75
2022/05/01 05:44:11;;;;;;;26.05;12.95;;;8.20;99.90;;;;;;4954920;28;20114;-75
2022/05/01 05:46:37;;;;;;;24.83;13.93;;;8.30;99.90;;;;;;4954926;28;20041;-75
2022/05/01 05:49:03;;;;;;;25.80;14.30;;;8.50;99.90;;;;;;4954561;28;20098;-75
2022/05/01 05:51:29;;;;;;;27.38;14.10;;;8.70;99.90;;;;;;4953895;29;20105;-75
2022/05/01 05:53:55;;;;;;;30.48;14.73;;;8.70;99.90;;;;;;4953302;28;20496;-75
2022/05/01 05:56:21;;;;;;;30.02;15.10;;;8.50;99.90;;;;;;4954900;28;20114;-76
2022/05/01 05:58:48;;;;;;;31.58;15.60;;;8.50;99.90;;;;;;4955375;28;20039;-75
2022/05/01 06:01:14;;;;;;;30.63;15.48;;;8.30;99.90;;;;;;4953338;28;20020;-75
2022/05/01 06:03:41;;;;;;;31.83;14.07;;;8.20;99.90;;;;;;4953990;28;20027;-75
2022/05/01 06:06:07;;;;;;;34.22;15.15;;;8.30;99.90;;;;;;4954472;28;20031;-75
2022/05/01 06:08:35;;;;;;;29.30;14.20;;;8.10;99.90;;;;;;4952951;29;20143;-75
2022/05/01 06:11:01;;;;;;;30.45;16.10;;;8.30;99.90;;;;;;4954266;28;20169;-75
2022/05/01 06:13:27;;;;;;;31.80;15.45;;;8.30;99.90;;;;;;4954103;28;20028;-74
2022/05/01 06:15:52;;;;;;;34.03;15.75;;;8.30;99.90;;;;;;4954718;28;20035;-75
2022/05/01 06:18:18;;;;;;;28.80;14.50;;;8.30;99.90;;;;;;4969066;28;20046;-76
2022/05/01 06:20:44;;;;;;;31.27;14.88;;;8.40;99.90;;;;;;4954293;28;20095;-76
2022/05/01 06:23:10;;;;;;;30.02;14.60;;;8.30;99.90;;;;;;4954246;28;20387;-77
2022/05/01 06:25:38;;;;;;;31.48;16.08;;;8.60;99.90;;;;;;4954129;28;20066;-76
2022/05/01 06:28:04;;;;;;;32.97;16.05;;;8.60;99.90;;;;;;4953785;28;20035;-76
2022/05/01 06:30:32;;;;;;;25.08;13.80;;;9.00;99.90;;;;;;4953991;28;20027;-76
2022/05/01 06:32:57;;;;;;;35.53;14.65;;;9.10;99.90;;;;;;4953798;28;20473;-76
2022/05/01 06:35:24;;;;;;;28.67;15.10;;;9.40;99.90;;;;;;4953937;28;20078;-76
2022/05/01 06:37:50;;;;;;;30.15;14.98;;;9.70;99.90;;;;;;4953599;28;20050;-76
2022/05/01 06:40:16;;;;;;;28.35;14.15;;;9.10;99.90;;;;;;4953757;28;20361;-76
2022/05/01 06:42:42;;;;;;;26.80;14.93;;;9.90;99.90;;;;;;4953049;28;20539;-76
2022/05/01 06:45:08;;;;;;;25.52;13.48;;;9.90;99.90;;;;;;4953885;28;20469;-77
2022/05/01 06:47:34;;;;;;;28.05;14.63;;;9.90;99.90;;;;;;4954296;28;20027;-76
2022/05/01 06:49:59;;;;;;;27.75;13.57;;;10.10;99.90;;;;;;4953707;28;20063;-78
2022/05/01 06:52:25;;;;;;;29.48;14.40;;;10.10;99.90;;;;;;4953745;28;20031;-77
2022/05/01 06:54:52;;;;;;;22.02;13.05;;;10.40;99.90;;;;;;4956120;28;20041;-76
2022/05/01 06:57:18;;;;;;;24.50;12.02;;;10.60;99.90;;;;;;4955781;28;20129;-77
2022/05/01 06:59:47;;;;;;;23.75;12.30;;;10.80;99.90;;;;;;4957009;28;20476;-77
2022/05/01 07:02:14;;;;;;;23.35;12.30;;;11.00;99.90;;;;;;4956195;28;20086;-77
2022/05/01 07:04:40;;;;;;;21.30;13.18;;;11.20;99.90;;;;;;4956258;28;20032;-76
2022/05/01 07:07:05;;;;;;;20.25;11.55;;;11.20;99.90;;;;;;4954235;28;20051;-76
2022/05/01 07:09:31;;;;;;;21.92;13.68;;;11.50;99.90;;;;;;4952402;28;20492;-76
2022/05/01 07:11:57;;;;;;;20.83;11.70;;;11.70;99.90;;;;;;4952040;28;20027;-76
2022/05/01 07:14:23;;;;;;;21.85;12.00;;;11.90;99.90;;;;;;4954491;28;20127;-76
2022/05/01 07:16:49;;;;;;;19.13;11.63;;;11.90;99.90;;;;;;4955693;28;20059;-77
2022/05/01 07:19:15;;;;;;;19.63;11.88;;;11.70;99.90;;;;;;4953976;28;20532;-76
2022/05/01 07:21:41;;;;;;;23.10;12.68;;;11.20;99.90;;;;;;4956684;28;20065;-76
2022/05/01 07:24:07;;;;;;;24.40;11.82;;;11.60;99.90;;;;;;4954822;28;20024;-76
2022/05/01 07:26:33;;;;;;;24.08;12.15;;;11.60;99.90;;;;;;4955350;28;20034;-76
2022/05/01 07:29:03;;;;;;;20.80;11.73;;;11.90;99.90;;;;;;4952553;28;20054;-76
2022/05/01 07:31:29;;;;;;;20.67;12.43;;;12.30;99.90;;;;;;4951751;28;20027;-77
2022/05/01 07:33:54;;;;;;;18.92;11.18;;;12.20;99.90;;;;;;4953992;28;20122;-76
2022/05/01 07:36:20;;;;;;;20.30;10.80;;;12.30;99.90;;;;;;4952783;28;20445;-76
2022/05/01 07:38:48;;;;;;;16.75;10.05;;;12.70;99.90;;;;;;4952623;28;20085;-80
2022/05/01 07:41:16;;;;;;;18.70;11.00;;;13.20;99.90;;;;;;4956800;28;20085;-76
2022/05/01 07:43:46;;;;;;;21.10;11.13;;;13.00;99.90;;;;;;4954917;28;20086;-76
2022/05/01 07:46:12;;;;;;;15.80;9.93;;;12.90;99.90;;;;;;4958457;28;20094;-76
2022/05/01 07:48:38;;;;;;;16.80;8.90;;;13.20;99.90;;;;;;4959272;28;20441;-73
2022/05/01 07:51:04;;;;;;;11.77;7.97;;;14.00;99.90;;;;;;4963064;28;20191;-75
2022/05/01 07:53:32;;;;;;;15.38;9.60;;;14.30;99.90;;;;;;4948308;28;20527;-80
2022/05/01 07:55:57;;;;;;;21.35;11.50;;;13.60;99.90;;;;;;4949320;28;20031;-79
2022/05/01 07:58:23;;;;;;;17.88;11.52;;;12.50;99.90;;;;;;4948921;29;20039;-79
2022/05/01 08:00:49;;;;;;;14.52;9.23;;;12.20;99.90;;;;;;4951300;28;20028;-79
2022/05/01 08:06:00;;;;;;;13.60;9.10;;;12.10;99.90;;;;;;4937609;29;20074;-78
2022/05/01 08:08:27;;;;;;;13.27;8.35;;;12.40;99.90;;;;;;4941151;29;20043;-78
2022/05/01 08:10:52;;;;;;;15.07;9.52;;;12.70;99.90;;;;;;4940073;29;20215;-80
2022/05/01 08:13:18;;;;;;;19.13;10.35;;;12.60;99.90;;;;;;4977583;28;20031;-79
2022/05/01 08:15:44;;;;;;;16.83;9.43;;;12.80;99.90;;;;;;4964951;28;20050;-80
2022/05/01 08:21:09;;;;;;;16.27;9.13;;;12.50;99.90;;;;;;4956498;29;20082;-78
2022/05/01 08:23:36;;;;;;;14.43;9.23;;;12.20;99.90;;;;;;4952615;29;20058;-78
2022/05/01 08:26:03;;;;;;;18.05;9.70;;;12.40;99.90;;;;;;4955220;28;20042;-82
2022/05/01 08:28:33;;;;;;;15.35;9.43;;;12.90;99.90;;;;;;4967068;29;20483;-81
2022/05/01 08:31:00;;;;;;;18.85;9.07;;;13.00;99.90;;;;;;4959782;28;20042;-79
2022/05/01 08:33:26;;;;;;;19.38;9.68;;;13.50;99.90;;;;;;4951728;29;20039;-78
2022/05/01 08:35:52;;;;;;;20.98;9.55;;;12.70;99.90;;;;;;4946233;28;20376;-77
2022/05/01 08:38:18;;;;;;;17.10;9.85;;;12.10;99.90;;;;;;4945611;29;20072;-80
2022/05/01 08:40:48;;;;;;;16.10;9.40;;;12.30;99.90;;;;;;4943780;29;20519;-80
2022/05/01 08:43:19;;;;;;;15.93;9.13;;;12.10;99.90;;;;;;4945904;29;20035;-82
2022/05/01 08:46:03;;;;;;;16.45;10.05;;;12.30;99.90;;;;;;4947816;29;20027;-79
2022/05/01 08:49:08;;;;;;;18.27;9.05;;;12.60;99.90;;;;;;4953256;29;20035;-76
2022/05/01 08:51:39;;;;;;;17.45;10.00;;;13.30;99.90;;;;;;4952487;29;20043;-78
2022/05/01 08:54:07;;;;;;;18.10;11.07;;;13.50;99.90;;;;;;4954790;29;20071;-80
2022/05/01 08:56:34;;;;;;;15.25;9.73;;;14.20;99.90;;;;;;4952057;29;20094;-79
2022/05/01 08:59:09;;;;;;;16.55;10.27;;;14.90;99.90;;;;;;4952032;29;20042;-78
2022/05/01 09:01:36;;;;;;;18.17;9.88;;;13.90;99.90;;;;;;4956408;29;20277;-79
2022/05/01 09:04:04;;;;;;;14.70;9.45;;;13.50;99.90;;;;;;4953388;29;20027;-79
2022/05/01 09:06:31;;;;;;;19.45;11.57;;;13.10;99.90;;;;;;4956442;29;20086;-79
2022/05/01 09:08:57;;;;;;;19.90;9.85;;;12.90;99.90;;;;;;4949904;28;20082;-80
2022/05/01 09:14:08;;;;;;;18.90;10.57;;;13.50;99.90;;;;;;4947393;29;20087;-82
2022/05/01 09:16:37;;;;;;;18.75;9.73;;;14.30;99.90;;;;;;4946694;29;20396;-79
2022/05/01 09:19:03;;;;;;;19.10;11.25;;;14.90;99.90;;;;;;4954127;28;20110;-78
2022/05/01 09:21:50;;;;;;;17.23;10.25;;;15.00;99.90;;;;;;4957121;28;20090;-78
2022/05/01 09:24:26;;;;;;;22.35;12.98;;;13.60;99.90;;;;;;4958918;28;20035;-82
2022/05/01 09:26:52;;;;;;;25.08;12.45;;;12.80;99.90;;;;;;4960112;28;20019;-79
2022/05/01 09:29:22;;;;;;;19.60;11.02;;;12.30;99.90;;;;;;4959953;29;20027;-80
2022/05/01 09:31:50;;;;;;;16.98;10.60;;;12.20;99.90;;;;;;4956934;29;20073;-82
2022/05/01 09:34:26;;;;;;;16.60;10.48;;;12.30;99.90;;;;;;4957063;29;20047;-79
2022/05/01 09:36:53;;;;;;;18.27;11.30;;;12.10;99.90;;;;;;4953912;29;20316;-83
2022/05/01 09:39:25;;;;;;;16.90;10.15;;;12.30;99.90;;;;;;4952838;28;20067;-79
2022/05/01 09:41:52;;;;;;;17.98;10.38;;;12.50;99.90;;;;;;4954240;29;20290;-79
2022/05/01 09:44:19;;;;;;;19.15;10.68;;;12.60;99.90;;;;;;4943329;29;20051;-80
2022/05/01 09:46:47;;;;;;;20.08;11.10;;;12.40;99.90;;;;;;4943726;29;20047;-81
2022/05/01 09:49:18;;;;;;;19.08;10.40;;;12.40;99.90;;;;;;4945771;29;20043;-80
2022/05/01 09:51:55;;;;;;;19.00;11.13;;;12.80;99.90;;;;;;4941652;29;20390;-79
2022/05/01 09:54:25;;;;;;;15.88;10.27;;;;;;;;;;4942888;28;20102;-79
2022/05/01 09:57:01;;;;;;;18.13;10.75;;;14.50;99.90;;;;;;4976852;28;20057;-81
2022/05/01 09:59:28;;;;;;;21.63;13.27;;;13.70;99.90;;;;;;4967595;28;20023;-82
2022/05/01 10:02:06;;;;;;;19.95;10.68;;;13.80;99.90;;;;;;4963243;29;20334;-80
2022/05/01 10:04:34;;;;;;;16.40;9.65;;;13.90;99.90;;;;;;4960322;28;20611;-81
2022/05/01 10:07:00;;;;;;;18.20;10.27;;;14.00;99.90;;;;;;4956316;29;20026;-78
2022/05/01 10:09:34;;;;;;;14.05;8.85;;;14.80;99.90;;;;;;4945564;28;20031;-79
2022/05/01 10:12:07;;;;;;;12.90;8.57;;;14.50;99.90;;;;;;4942384;29;20464;-79
2022/05/01 10:14:34;;;;;;;16.08;8.85;;;14.50;99.90;;;;;;4942071;29;20062;-80
2022/05/01 10:17:00;;;;;;;17.98;10.00;;;15.00;99.90;;;;;;4942626;29;20081;-79
2022/05/01 10:19:26;;;;;;;14.85;8.77;;;15.30;99.00;;;;;;4943014;29;20228;-81
2022/05/01 10:21:56;;;;;;;15.05;9.00;;;15.80;96.60;;;;;;4961750;29;20095;-82
2022/05/01 10:24:23;;;;;;;15.48;10.02;;;15.40;98.70;;;;;;4957522;29;20027;-78
2022/05/01 10:27:35;;;;;;;15.48;9.63;;;15.30;99.90;;;;;;4941199;29;20071;-78
2022/05/01 10:33:09;;;;;;;15.65;9.27;;;15.20;99.90;;;;;;4942377;29;20063;-79
2022/05/01 10:35:34;;;;;;;16.27;10.18;;;15.40;95.60;;;;;;4958637;29;20038;-79
2022/05/01 10:38:21;;;;;;;15.02;8.50;;;15.10;99.90;;;;;;4941149;29;20047;-78
2022/05/01 10:40:55;;;;;;;20.02;10.75;;;15.40;99.90;;;;;;4970630;28;20039;-78
2022/05/01 10:43:30;;;;;;;12.85;9.18;;;16.30;95.50;;;;;;4962785;29;20030;-79
2022/05/01 10:46:01;;;;;;;14.68;9.38;;;16.60;91.80;;;;;;4975165;28;20039;-81
2022/05/01 10:48:30;;;;;;;17.42;9.73;;;16.70;93.20;;;;;;4968404;28;20027;-79
2022/05/01 10:51:31;;;;;;;17.48;10.57;;;16.80;97.50;;;;;;4985929;28;20098;-81
2022/05/01 10:54:15;;;;;;;16.35;10.57;;;15.70;96.80;;;;;;4982314;28;20031;-80
2022/05/01 10:56:42;;;;;;;15.38;9.82;;;15.40;98.80;;;;;;4983157;28;20038;-77
2022/05/01 10:59:29;;;;;;;15.30;9.40;;;15.00;99.90;;;;;;4981895;28;20090;-78
2022/05/01 11:02:05;;;;;;;16.35;9.75;;;14.50;99.90;;;;;;4980739;28;20030;-78
2022/05/01 11:04:42;;;;;;;15.20;10.45;;;14.50;99.90;;;;;;4979373;28;20258;-79
2022/05/01 11:07:16;;;;;;;16.08;10.45;;;14.40;99.90;;;;;;4981829;28;20023;-78
2022/05/01 11:09:47;;;;;;;15.90;10.02;;;14.90;99.90;;;;;;4978416;28;20055;-85
2022/05/01 11:12:15;;;;;;;15.68;10.00;;;18.40;99.90;;;;;;4980843;28;20292;-79
2022/05/01 11:15:02;;;;;;;19.23;9.68;;;16.40;91.70;;;;;;4981014;28;20034;-78
2022/05/01 11:17:41;;;;;;;14.35;8.65;;;;;;;;;;4977500;28;20102;-79
2022/05/01 11:20:09;;;;;;;;;;;16.40;88.40;;;;;;4980061;28;20050;-79
2022/05/01 11:22:35;;;;;;;13.60;9.48;;;;;;;;;;4979684;28;19914;-79
2022/05/01 11:25:01;;;;;;;14.00;8.98;;;16.30;87.70;;;;;;4980241;28;20038;-81
2022/05/01 11:27:27;;;;;;;13.02;9.90;;;17.10;80.80;;;;;;4977167;28;20349;-79
2022/05/01 11:30:09;;;;;;;19.20;10.60;;;17.40;76.70;;;;;;4979716;28;20317;-79
2022/05/01 11:32:51;;;;;;;17.48;9.52;;;17.30;80.00;;;;;;4982622;28;20034;-80
2022/05/01 11:35:19;;;;;;;16.33;10.48;;;15.80;87.60;;;;;;4984204;28;20030;-81
2022/05/01 11:37:59;;;;;;;20.02;11.07;;;14.80;95.50;;;;;;4986856;28;20022;-79
2022/05/01 11:40:26;;;;;;;18.05;9.63;;;;;;;;;;4974830;28;20031;-82
2022/05/01 11:43:13;;;;;;;14.90;9.35;;;14.50;99.90;;;;;;4981263;28;20351;-78
2022/05/01 11:45:38;;;;;;;13.75;8.85;;;14.60;99.90;;;;;;4969283;28;20033;-80
2022/05/01 11:48:14;;;;;;;13.93;8.23;;;15.60;97.90;;;;;;4973920;28;20046;-83
2022/05/01 11:50:41;;;;;;;11.23;7.70;;;16.70;81.60;;;;;;4979640;28;20085;-80
2022/05/01 11:53:17;;;;;;;10.40;7.72;;;17.80;73.90;;;;;;4976947;28;20026;-78
2022/05/01 12:04:43;;;;;;;13.10;8.88;;;18.40;66.70;;;;;;4986481;28;20044;-81
2022/05/01 12:07:17;;;;;;;11.13;7.88;;;17.30;68.30;;;;;;4924824;29;20043;-82
2022/05/01 12:09:46;;;;;;;12.52;8.15;;;15.50;76.50;;;;;;4968071;28;20069;-80
2022/05/01 12:12:14;;;;;;;17.17;7.90;;;15.20;79.50;;;;;;4950971;28;20357;-75
2022/05/01 12:14:41;;;;;;;11.15;6.97;;;15.10;79.50;;;;;;4954119;28;20357;-76
2022/05/01 12:17:08;;;;;;;10.85;6.93;;;16.20;80.70;;;;;;4949191;29;20078;-75
2022/05/01 12:19:44;;;;;;;9.57;6.78;;;17.00;69.50;;;;;;4949769;29;20408;-76
2022/05/01 12:22:21;;;;;;;10.23;6.78;;;17.30;66.60;;;;;;4950053;29;20027;-76
2022/05/01 12:24:48;;;;;;;12.02;7.30;;;17.90;68.70;;;;;;4950095;29;20401;-76
2022/05/01 12:27:16;;;;;;;13.05;7.47;;;18.10;64.50;;;;;;4948706;29;20027;-76
2022/05/01 12:29:51;;;;;;;11.98;7.07;;;18.60;67.30;;;;;;4948283;28;20035;-75
2022/05/01 12:32:17;;;;;;;8.60;6.78;;;18.40;64.50;;;;;;4948088;29;20033;-75
2022/05/01 12:34:52;;;;;;;11.00;6.88;;;18.40;65.90;;;;;;4951684;28;20031;-75
2022/05/01 12:37:19;;;;;;;11.63;6.97;;;18.70;64.20;;;;;;4958549;29;20046;-76
2022/05/01 12:40:02;;;;;;;13.88;7.55;;;18.30;65.30;;;;;;4958082;28;20027;-76
2022/05/01 12:45:22;;;;;;;9.25;6.32;;;18.80;63.50;;;;;;4941833;29;20140;-76
2022/05/01 12:47:49;;;;;;;12.45;6.60;;;19.10;63.00;;;;;;4946800;28;20398;-76
2022/05/01 12:50:21;;;;;;;9.75;7.55;;;19.30;62.60;;;;;;4957087;29;20063;-80
2022/05/01 12:52:51;;;;;;;12.13;8.43;;;18.90;61.20;;;;;;4954916;28;20051;-82
2022/05/01 12:55:22;;;;;;;11.05;7.20;;;18.10;62.20;;;;;;4960213;28;20035;-79
2022/05/01 12:58:06;;;;;;;11.10;6.72;;;18.70;65.30;;;;;;4958093;29;20042;-77
2022/05/01 13:00:33;;;;;;;10.07;6.47;;;19.10;64.50;;;;;;4958548;29;20329;-79
2022/05/01 13:03:28;;;;;;;14.70;7.10;;;18.90;62.90;;;;;;4957797;29;20077;-79
2022/05/01 13:06:09;;;;;;;11.98;7.40;;;19.00;62.90;;;;;;4951721;29;20067;-79
2022/05/01 13:08:39;;;;;;;10.77;6.22;;;19.30;63.70;;;;;;4957692;29;20041;-79
2022/05/01 13:11:23;;;;;;;9.02;7.10;;;;;;;;;;4958114;29;20106;-81
2022/05/01 13:13:53;;;;;;;8.43;5.90;;;19.30;60.00;;;;;;4958424;28;20211;-80
2022/05/01 13:16:23;;;;;;;9.35;5.82;;;;;;;;;;4962159;28;20151;-81
2022/05/01 13:18:51;;;;;;;11.35;6.65;;;20.00;57.20;;;;;;4961367;29;20059;-80
2022/05/01 13:21:17;;;;;;;8.18;6.30;;;19.90;57.20;;;;;;4962063;29;20399;-80
2022/05/01 13:23:44;;;;;;;9.57;6.45;;;20.20;58.80;;;;;;4960823;29;20034;-80